createdAt,value
2022-10-18T00:00:02.909Z,94
2022-10-18T00:01:10.060Z,94
2022-10-18T00:02:17.233Z,94
2022-10-18T00:04:31.353Z,94
2022-10-18T00:05:37.966Z,94
2022-10-18T00:06:45.036Z,94
2022-10-18T00:07:52.159Z,94
2022-10-18T00:08:59.368Z,94
2022-10-18T00:10:06.367Z,94
2022-10-18T00:11:12.904Z,94
2022-10-18T00:12:20.006Z,94
2022-10-18T00:13:27.184Z,93
2022-10-18T00:15:41.339Z,94
2022-10-18T00:16:47.971Z,94
2022-10-18T00:19:02.206Z,94
2022-10-18T00:20:09.350Z,94
2022-10-18T00:21:16.388Z,94
2022-10-18T00:23:30.048Z,94
2022-10-18T00:24:37.178Z,94
2022-10-18T00:25:44.330Z,94
2022-10-18T00:26:51.395Z,94
2022-10-18T00:27:57.977Z,94
2022-10-18T00:29:05.080Z,94
2022-10-18T00:30:12.150Z,94
2022-10-18T00:31:19.342Z,93
2022-10-18T00:32:26.398Z,93
2022-10-18T00:33:32.940Z,93
2022-10-18T00:34:40.091Z,93
2022-10-18T00:35:47.188Z,93
2022-10-18T00:36:54.273Z,93
2022-10-18T00:38:01.345Z,93
2022-10-18T00:39:08.003Z,94
2022-10-18T00:40:15.089Z,94
2022-10-18T00:41:22.207Z,94
2022-10-18T00:42:29.709Z,93
2022-10-18T00:43:35.908Z,94
2022-10-18T00:44:42.986Z,93
2022-10-18T00:45:50.094Z,93
2022-10-18T00:46:57.230Z,93
2022-10-18T00:48:04.295Z,93
2022-10-18T00:49:10.846Z,93
2022-10-18T00:50:18.061Z,93
2022-10-18T00:51:25.139Z,93
2022-10-18T00:52:34.643Z,93
2022-10-18T00:53:39.314Z,93
2022-10-18T00:54:46.428Z,94
2022-10-18T00:57:00.267Z,93
2022-10-18T00:58:07.180Z,93
2022-10-18T00:59:14.304Z,93
2022-10-18T01:00:20.930Z,93
2022-10-18T01:01:28.589Z,93
2022-10-18T01:02:35.062Z,93
2022-10-18T01:03:42.211Z,93
2022-10-18T01:04:49.343Z,97
2022-10-18T01:05:55.987Z,97
2022-10-18T01:08:10.134Z,97
2022-10-18T01:09:17.199Z,97
2022-10-18T01:10:24.364Z,97
2022-10-18T01:11:30.897Z,97
2022-10-18T01:12:38.009Z,97
2022-10-18T01:13:45.126Z,97
2022-10-18T01:14:52.218Z,97
2022-10-18T01:15:59.433Z,97
2022-10-18T01:17:05.909Z,97
2022-10-18T01:18:13.017Z,97
2022-10-18T01:19:20.139Z,97
2022-10-18T01:20:27.241Z,97
2022-10-18T01:21:34.361Z,97
2022-10-18T01:22:40.908Z,97
2022-10-18T01:23:48.031Z,97
2022-10-18T01:24:54.695Z,97
2022-10-18T01:26:02.272Z,97
2022-10-18T01:27:09.386Z,97
2022-10-18T01:28:15.944Z,97
2022-10-18T01:29:23.005Z,97
2022-10-18T01:30:30.168Z,97
2022-10-18T01:31:37.283Z,97
2022-10-18T01:32:44.355Z,97
2022-10-18T01:33:51.196Z,97
2022-10-18T01:34:58.062Z,97
2022-10-18T01:36:05.217Z,97
2022-10-18T01:38:19.386Z,98
2022-10-18T01:39:25.963Z,98
2022-10-18T01:40:33.056Z,98
2022-10-18T01:41:40.222Z,98
2022-10-18T01:42:47.290Z,98
2022-10-18T01:43:54.376Z,98
2022-10-18T01:45:01.048Z,98
2022-10-18T01:46:08.063Z,98
2022-10-18T01:47:15.175Z,98
2022-10-18T01:48:22.242Z,98
2022-10-18T01:49:29.418Z,98
2022-10-18T01:50:36.001Z,98
2022-10-18T01:51:43.049Z,98
2022-10-18T01:53:57.318Z,98
2022-10-18T01:55:03.849Z,98
2022-10-18T01:56:10.963Z,98
2022-10-18T01:57:18.081Z,98
2022-10-18T01:58:25.169Z,97
2022-10-18T01:59:32.285Z,98
2022-10-18T02:00:38.930Z,98
2022-10-18T02:01:45.995Z,98
2022-10-18T02:02:53.057Z,98
2022-10-18T02:04:00.167Z,98
2022-10-18T02:05:07.305Z,98
2022-10-18T02:06:13.894Z,98
2022-10-18T02:07:20.988Z,98
2022-10-18T02:08:28.097Z,98
2022-10-18T02:09:35.191Z,97
2022-10-18T02:11:48.948Z,98
2022-10-18T02:12:56.007Z,98
2022-10-18T02:14:03.084Z,98
2022-10-18T02:15:10.221Z,98
2022-10-18T02:16:17.345Z,98
2022-10-18T02:17:23.880Z,98
2022-10-18T02:19:38.111Z,98
2022-10-18T02:21:52.350Z,98
2022-10-18T02:24:06.038Z,98
2022-10-18T02:25:13.096Z,98
2022-10-18T02:26:20.247Z,98
2022-10-18T02:27:27.312Z,98
2022-10-18T02:28:33.904Z,98
2022-10-18T02:29:41.517Z,98
2022-10-18T02:30:48.172Z,98
2022-10-18T02:31:55.245Z,98
2022-10-18T02:33:02.364Z,98
2022-10-18T02:34:08.954Z,98
2022-10-18T02:35:16.018Z,98
2022-10-18T02:36:23.140Z,98
2022-10-18T02:37:30.296Z,98
2022-10-18T02:38:37.299Z,98
2022-10-18T02:39:43.971Z,98
2022-10-18T02:40:51.069Z,98
2022-10-18T02:41:58.137Z,98
2022-10-18T02:43:05.366Z,98
2022-10-18T02:44:12.338Z,98
2022-10-18T02:45:18.958Z,98
2022-10-18T02:47:33.350Z,98
2022-10-18T02:48:40.290Z,98
2022-10-18T02:49:47.380Z,98
2022-10-18T02:50:53.976Z,98
2022-10-18T02:52:01.027Z,98
2022-10-18T02:53:08.162Z,98
2022-10-18T02:54:15.285Z,98
2022-10-18T02:55:21.878Z,98
2022-10-18T02:56:28.973Z,98
2022-10-18T02:57:36.068Z,98
2022-10-18T02:58:43.120Z,98
2022-10-18T03:00:57.427Z,98
2022-10-18T03:02:03.937Z,98
2022-10-18T03:03:11.068Z,98
2022-10-18T03:04:18.229Z,98
2022-10-18T03:05:25.290Z,98
2022-10-18T03:06:32.357Z,98
2022-10-18T03:07:38.979Z,98
2022-10-18T03:08:46.059Z,98
2022-10-18T03:09:53.168Z,98
2022-10-18T03:11:00.337Z,98
2022-10-18T03:12:07.399Z,98
2022-10-18T03:13:13.976Z,98
2022-10-18T03:14:21.069Z,98
2022-10-18T03:15:28.207Z,98
2022-10-18T03:16:35.299Z,98
2022-10-18T03:17:42.380Z,98
2022-10-18T03:18:48.985Z,98
2022-10-18T03:19:56.237Z,98
2022-10-18T03:21:03.212Z,98
2022-10-18T03:22:10.271Z,98
2022-10-18T03:23:16.891Z,98
2022-10-18T03:24:23.957Z,98
2022-10-18T03:25:31.079Z,98
2022-10-18T03:26:38.260Z,98
2022-10-18T03:27:45.318Z,98
2022-10-18T03:28:51.945Z,98
2022-10-18T03:29:59.013Z,98
2022-10-18T03:31:06.152Z,98
2022-10-18T03:32:13.186Z,98
2022-10-18T03:33:20.307Z,98
2022-10-18T03:34:26.905Z,98
2022-10-18T03:35:33.990Z,98
2022-10-18T03:36:41.630Z,98
2022-10-18T03:37:48.246Z,98
2022-10-18T03:38:55.341Z,98
2022-10-18T03:40:01.865Z,98
2022-10-18T03:42:16.201Z,98
2022-10-18T03:43:23.197Z,98
2022-10-18T03:44:30.331Z,98
2022-10-18T03:45:36.893Z,98
2022-10-18T03:46:44.039Z,98
2022-10-18T03:47:51.102Z,98
2022-10-18T03:48:58.232Z,98
2022-10-18T03:50:05.350Z,98
2022-10-18T03:52:19.082Z,98
2022-10-18T03:53:26.130Z,98
2022-10-18T03:54:33.234Z,98
2022-10-18T03:55:40.322Z,98
2022-10-18T03:56:46.937Z,98
2022-10-18T03:57:54.038Z,98
2022-10-18T03:59:01.125Z,98
2022-10-18T04:00:08.278Z,98
2022-10-18T04:01:15.427Z,98
2022-10-18T04:02:21.933Z,98
2022-10-18T04:03:29.068Z,98
2022-10-18T04:04:36.167Z,98
2022-10-18T04:05:43.228Z,98
2022-10-18T04:06:50.377Z,98
2022-10-18T04:07:57.123Z,98
2022-10-18T04:09:06.559Z,98
2022-10-18T04:10:11.139Z,98
2022-10-18T04:11:18.291Z,98
2022-10-18T04:12:25.392Z,98
2022-10-18T04:13:31.904Z,98
2022-10-18T04:14:39.100Z,98
2022-10-18T04:15:46.199Z,98
2022-10-18T04:16:53.223Z,98
2022-10-18T04:20:14.053Z,98
2022-10-18T04:21:21.186Z,98
2022-10-18T04:23:37.982Z,98
2022-10-18T04:24:41.954Z,98
2022-10-18T04:25:49.096Z,98
2022-10-18T04:26:56.190Z,98
2022-10-18T04:28:03.239Z,98
2022-10-18T04:29:10.421Z,98
2022-10-18T04:30:16.969Z,98
2022-10-18T04:31:24.098Z,98
2022-10-18T04:32:31.230Z,98
2022-10-18T04:33:38.251Z,98
2022-10-18T04:34:44.904Z,98
2022-10-18T04:35:52.022Z,98
2022-10-18T04:36:59.602Z,98
2022-10-18T04:38:06.207Z,98
2022-10-18T04:39:13.278Z,98
2022-10-18T04:40:19.898Z,98
2022-10-18T04:41:27.037Z,98
2022-10-18T04:42:34.757Z,98
2022-10-18T04:43:41.231Z,98
2022-10-18T04:44:48.277Z,98
2022-10-18T04:45:55.414Z,98
2022-10-18T04:48:09.117Z,98
2022-10-18T04:49:16.189Z,98
2022-10-18T04:50:23.307Z,98
2022-10-18T04:51:29.956Z,98
2022-10-18T04:52:37.093Z,98
2022-10-18T04:53:45.191Z,98
2022-10-18T04:54:51.178Z,98
2022-10-18T04:55:58.308Z,98
2022-10-18T04:57:04.937Z,98
2022-10-18T04:58:11.991Z,98
2022-10-18T04:59:19.121Z,98
2022-10-18T05:00:26.251Z,98
2022-10-18T05:01:33.374Z,98
2022-10-18T05:02:39.934Z,98
2022-10-18T05:04:54.159Z,98
2022-10-18T05:06:02.799Z,98
2022-10-18T05:07:08.447Z,98
2022-10-18T05:08:14.938Z,98
2022-10-18T05:09:22.006Z,98
2022-10-18T05:10:29.137Z,98
2022-10-18T05:11:36.392Z,98
2022-10-18T05:12:43.348Z,98
2022-10-18T05:13:50.941Z,98
2022-10-18T05:14:57.068Z,98
2022-10-18T05:16:04.193Z,98
2022-10-18T05:17:11.229Z,98
2022-10-18T05:18:18.369Z,98
2022-10-18T05:20:31.999Z,98
2022-10-18T05:21:39.138Z,98
2022-10-18T05:22:46.269Z,98
2022-10-18T05:23:53.351Z,98
2022-10-18T05:24:59.967Z,98
2022-10-18T05:26:07.110Z,98
2022-10-18T05:27:14.148Z,98
2022-10-18T05:28:38.707Z,98
2022-10-18T05:30:34.982Z,98
2022-10-18T05:31:42.038Z,98
2022-10-18T05:32:49.123Z,89
2022-10-18T05:33:56.291Z,98
2022-10-18T05:35:03.345Z,98
2022-10-18T05:36:09.990Z,98
2022-10-18T05:37:17.090Z,98
2022-10-18T05:38:24.267Z,98
2022-10-18T05:39:31.266Z,98
2022-10-18T05:40:38.389Z,98
2022-10-18T05:41:45.007Z,98
2022-10-18T05:42:52.078Z,98
2022-10-18T05:43:59.292Z,98
2022-10-18T05:46:15.500Z,98
2022-10-18T05:47:19.927Z,98
2022-10-18T05:48:27.108Z,98
2022-10-18T05:50:41.297Z,98
2022-10-18T05:51:48.466Z,98
2022-10-18T05:52:56.972Z,98
2022-10-18T05:54:02.087Z,98
2022-10-18T05:55:09.191Z,98
2022-10-18T05:56:16.316Z,98
2022-10-18T05:57:23.388Z,98
2022-10-18T05:58:29.976Z,98
2022-10-18T05:59:37.120Z,98
2022-10-18T06:00:44.226Z,98
2022-10-18T06:01:51.314Z,98
2022-10-18T06:03:00.378Z,98
2022-10-18T06:04:05.022Z,98
2022-10-18T06:05:12.095Z,98
2022-10-18T06:06:19.238Z,98
2022-10-18T06:07:26.306Z,98
2022-10-18T06:08:32.897Z,98
2022-10-18T06:09:39.981Z,98
2022-10-18T06:10:47.130Z,98
2022-10-18T06:11:54.285Z,98
2022-10-18T06:13:01.278Z,98
2022-10-18T06:14:07.956Z,98
2022-10-18T06:15:15.006Z,98
2022-10-18T06:16:22.173Z,98
2022-10-18T06:18:36.348Z,98
2022-10-18T06:19:42.891Z,98
2022-10-18T06:20:50.084Z,98
2022-10-18T06:21:57.198Z,98
2022-10-18T06:23:04.217Z,98
2022-10-18T06:24:11.345Z,98
2022-10-18T06:25:17.938Z,98
2022-10-18T06:27:32.420Z,98
2022-10-18T06:28:39.357Z,98
2022-10-18T06:29:46.333Z,98
2022-10-18T06:30:52.916Z,98
2022-10-18T06:32:00.120Z,98
2022-10-18T06:33:07.146Z,98
2022-10-18T06:34:14.248Z,98
2022-10-18T06:35:21.346Z,98
2022-10-18T06:36:27.982Z,98
2022-10-18T06:37:35.501Z,98
2022-10-18T06:38:42.134Z,98
2022-10-18T06:39:49.532Z,98
2022-10-18T06:40:56.358Z,98
2022-10-18T06:42:02.931Z,98
2022-10-18T06:43:20.531Z,98
2022-10-18T06:46:31.381Z,98
2022-10-18T06:48:45.076Z,98
2022-10-18T06:49:52.170Z,98
2022-10-18T06:51:00.701Z,98
2022-10-18T06:52:06.375Z,98
2022-10-18T06:53:12.942Z,99
2022-10-18T06:54:20.071Z,98
2022-10-18T06:55:27.336Z,99
2022-10-18T06:56:34.354Z,98
2022-10-18T06:57:41.342Z,98
2022-10-18T06:58:48.093Z,98
2022-10-18T06:59:55.128Z,98
2022-10-18T07:01:02.182Z,98
2022-10-18T07:02:09.408Z,99
2022-10-18T07:03:16.425Z,98
2022-10-18T07:04:22.925Z,98
2022-10-18T07:05:30.175Z,99
2022-10-18T07:06:37.230Z,98
2022-10-18T07:08:51.481Z,98
2022-10-18T07:09:58.031Z,99
2022-10-18T07:11:05.076Z,98
2022-10-18T07:12:12.148Z,98
2022-10-18T07:13:32.092Z,99
2022-10-18T07:14:29.029Z,98
2022-10-18T07:16:40.128Z,99
2022-10-18T07:17:47.228Z,99
2022-10-18T07:18:54.296Z,99
2022-10-18T07:20:01.029Z,99
2022-10-18T07:21:07.987Z,99
2022-10-18T07:22:15.297Z,98
2022-10-18T07:23:22.209Z,98
2022-10-18T07:24:29.371Z,98
2022-10-18T07:25:36.060Z,98
2022-10-18T07:26:43.017Z,98
2022-10-18T07:27:50.167Z,99
2022-10-18T07:28:57.252Z,99
2022-10-18T07:30:04.346Z,99
2022-10-18T07:31:11.483Z,99
2022-10-18T07:32:18.064Z,99
2022-10-18T07:33:25.159Z,99
2022-10-18T07:34:32.237Z,99
2022-10-18T07:35:39.330Z,99
2022-10-18T07:36:46.508Z,99
2022-10-18T07:37:53.042Z,99
2022-10-18T07:39:00.165Z,99
2022-10-18T07:40:07.279Z,99
2022-10-18T07:41:14.387Z,99
2022-10-18T07:42:21.398Z,99
2022-10-18T07:43:27.989Z,99
2022-10-18T07:44:35.140Z,98
2022-10-18T07:45:42.216Z,99
2022-10-18T07:46:49.358Z,99
2022-10-18T07:50:10.158Z,99
2022-10-18T07:51:17.325Z,99
2022-10-18T07:52:24.341Z,99
2022-10-18T07:53:31.437Z,99
2022-10-18T07:54:38.115Z,99
2022-10-18T07:55:45.210Z,98
2022-10-18T07:56:52.275Z,99
2022-10-18T07:57:59.338Z,99
2022-10-18T07:59:05.948Z,99
2022-10-18T08:00:13.067Z,99
2022-10-18T08:01:20.202Z,99
2022-10-18T08:02:27.288Z,99
2022-10-18T08:03:34.417Z,99
2022-10-18T08:04:40.948Z,99
2022-10-18T08:05:48.081Z,99
2022-10-18T08:06:55.327Z,99
2022-10-18T08:08:04.409Z,98
2022-10-18T08:09:09.375Z,98
2022-10-18T08:10:15.935Z,99
2022-10-18T08:11:23.126Z,99
2022-10-18T08:12:30.237Z,99
2022-10-18T08:13:37.288Z,99
2022-10-18T08:14:44.392Z,99
2022-10-18T08:16:58.155Z,98
2022-10-18T08:18:05.209Z,99
2022-10-18T08:19:12.264Z,99
2022-10-18T08:21:25.930Z,100
2022-10-18T08:22:34.861Z,100
2022-10-18T08:23:40.212Z,100
2022-10-18T08:24:47.324Z,100
2022-10-18T08:25:54.410Z,100
2022-10-18T08:27:01.002Z,100
2022-10-18T08:28:08.077Z,100
2022-10-18T08:29:23.976Z,100
2022-10-18T08:31:29.508Z,100
2022-10-18T08:32:35.976Z,100
2022-10-18T08:33:43.088Z,100
2022-10-18T08:34:50.197Z,100
2022-10-18T08:35:57.257Z,100
2022-10-18T08:37:04.488Z,100
2022-10-18T08:38:15.133Z,100
2022-10-18T08:39:18.071Z,100
2022-10-18T08:40:25.219Z,100
2022-10-18T08:41:32.335Z,100
2022-10-18T08:42:39.406Z,100
2022-10-18T08:44:53.110Z,100
2022-10-18T08:46:00.265Z,100
2022-10-18T08:47:07.331Z,100
2022-10-18T08:48:13.902Z,100
2022-10-18T08:49:21.019Z,100
2022-10-18T08:50:28.107Z,100
2022-10-18T08:52:42.376Z,100
2022-10-18T08:53:49.458Z,100
2022-10-18T08:54:56.055Z,100
2022-10-18T08:56:03.097Z,100
2022-10-18T08:57:10.267Z,100
2022-10-18T08:58:17.336Z,100
2022-10-18T08:59:25.543Z,100
2022-10-18T09:00:31.015Z,100
2022-10-18T09:01:38.307Z,100
2022-10-18T09:02:45.258Z,100
2022-10-18T09:03:52.314Z,100
2022-10-18T09:04:59.452Z,100
2022-10-18T09:06:06.075Z,100
2022-10-18T09:07:13.158Z,100
2022-10-18T09:08:20.248Z,100
2022-10-18T09:09:27.450Z,100
2022-10-18T09:10:33.915Z,100
2022-10-18T09:12:48.252Z,100
2022-10-18T09:13:55.289Z,100
2022-10-18T09:15:02.351Z,100
2022-10-18T09:16:08.933Z,100
2022-10-18T09:17:16.372Z,100
2022-10-18T09:18:23.128Z,100
2022-10-18T09:19:30.270Z,100
2022-10-18T09:20:37.337Z,100
2022-10-18T09:21:44.027Z,100
2022-10-18T09:22:51.044Z,100
2022-10-18T09:23:58.174Z,100
2022-10-18T09:25:05.251Z,100
2022-10-18T09:26:12.336Z,100
2022-10-18T09:27:18.999Z,100
2022-10-18T09:28:26.159Z,100
2022-10-18T09:29:33.139Z,100
2022-10-18T09:30:40.296Z,100
2022-10-18T09:31:47.449Z,100
2022-10-18T09:32:53.932Z,100
2022-10-18T09:34:01.104Z,100
2022-10-18T09:35:08.161Z,100
2022-10-18T09:36:15.318Z,100
2022-10-18T09:37:22.378Z,100
2022-10-18T09:38:28.995Z,100
2022-10-18T09:39:36.085Z,100
2022-10-18T09:40:43.162Z,100
2022-10-18T09:41:50.331Z,100
2022-10-18T09:42:57.475Z,100
2022-10-18T09:45:11.079Z,100
2022-10-18T09:46:17.746Z,100
2022-10-18T09:47:25.387Z,100
2022-10-18T09:48:32.387Z,100
2022-10-18T09:49:38.989Z,100
2022-10-18T09:50:46.092Z,100
2022-10-18T09:51:53.180Z,100
2022-10-18T09:54:07.391Z,100
2022-10-18T09:56:21.080Z,100
2022-10-18T09:57:28.200Z,100
2022-10-18T09:58:35.351Z,99
2022-10-18T09:59:42.495Z,99
2022-10-18T10:00:49.052Z,99
2022-10-18T10:01:56.180Z,99
2022-10-18T10:03:03.238Z,99
2022-10-18T10:04:10.322Z,99
2022-10-18T10:05:17.469Z,99
2022-10-18T10:06:24.046Z,99
2022-10-18T10:08:38.239Z,102
2022-10-18T10:09:45.327Z,102
2022-10-18T10:10:51.901Z,102
2022-10-18T10:11:59.108Z,101
2022-10-18T10:13:06.167Z,101
2022-10-18T10:15:20.457Z,101
2022-10-18T10:16:27.500Z,101
2022-10-18T10:17:34.574Z,101
2022-10-18T10:18:41.139Z,101
2022-10-18T10:19:48.301Z,101
2022-10-18T10:20:55.330Z,101
2022-10-18T10:22:02.526Z,101
2022-10-18T10:23:09.144Z,101
2022-10-18T10:24:16.131Z,101
2022-10-18T10:25:23.216Z,101
2022-10-18T10:26:30.323Z,101
2022-10-18T10:27:37.480Z,101
2022-10-18T10:28:44.196Z,101
2022-10-18T10:29:51.197Z,101
2022-10-18T10:30:58.286Z,101
2022-10-18T10:32:05.398Z,101
2022-10-18T10:33:11.941Z,101
2022-10-18T10:34:19.038Z,101
2022-10-18T10:35:41.326Z,101
2022-10-18T10:36:33.268Z,101
2022-10-18T10:37:40.363Z,101
2022-10-18T10:38:47.000Z,101
2022-10-18T10:40:13.765Z,101
2022-10-18T10:41:01.182Z,101
2022-10-18T10:43:33.019Z,101
2022-10-18T10:44:21.978Z,101
2022-10-18T10:45:29.057Z,101
2022-10-18T10:46:36.166Z,101
2022-10-18T10:47:43.281Z,101
2022-10-18T10:48:50.364Z,101
2022-10-18T10:49:57.023Z,101
2022-10-18T10:51:04.101Z,101
2022-10-18T10:52:36.527Z,101
2022-10-18T10:53:18.271Z,101
2022-10-18T10:54:25.419Z,101
2022-10-18T10:55:35.286Z,101
2022-10-18T10:56:39.229Z,101
2022-10-18T10:57:46.185Z,101
2022-10-18T11:00:00.410Z,101
2022-10-18T11:01:10.531Z,101
2022-10-18T11:02:14.169Z,101
2022-10-18T11:03:28.979Z,101
2022-10-18T11:04:28.319Z,101
2022-10-18T11:05:35.449Z,101
2022-10-18T11:06:41.997Z,101
2022-10-18T11:07:49.106Z,101
2022-10-18T11:08:56.193Z,101
2022-10-18T11:10:03.318Z,101
2022-10-18T11:11:10.396Z,101
2022-10-18T11:13:24.184Z,101
2022-10-18T11:14:31.206Z,101
2022-10-18T11:15:38.370Z,101
2022-10-18T11:16:45.507Z,101
2022-10-18T11:17:52.016Z,101
2022-10-18T11:18:59.143Z,101
2022-10-18T11:20:06.275Z,101
2022-10-18T11:21:13.275Z,101
2022-10-18T11:22:20.460Z,101
2022-10-18T11:23:27.058Z,101
2022-10-18T11:24:34.188Z,101
2022-10-18T11:25:41.206Z,101
2022-10-18T11:26:48.916Z,100
2022-10-18T11:27:55.479Z,100
2022-10-18T11:29:02.098Z,100
2022-10-18T11:30:09.122Z,101
2022-10-18T11:31:16.276Z,100
2022-10-18T11:32:23.381Z,100
2022-10-18T11:33:56.323Z,100
2022-10-18T11:34:37.060Z,100
2022-10-18T11:35:44.163Z,100
2022-10-18T11:36:57.959Z,100
2022-10-18T11:37:58.411Z,100
2022-10-18T11:39:04.914Z,100
2022-10-18T11:40:12.058Z,100
2022-10-18T11:41:19.132Z,100
2022-10-18T11:42:26.335Z,100
2022-10-18T11:43:50.519Z,100
2022-10-18T11:44:39.934Z,100
2022-10-18T11:45:47.147Z,100
2022-10-18T11:46:54.152Z,100
2022-10-18T11:48:01.284Z,100
2022-10-18T11:49:08.380Z,100
2022-10-18T11:50:14.973Z,100
2022-10-18T11:51:29.742Z,100
2022-10-18T11:52:29.282Z,100
2022-10-18T11:53:36.251Z,100
2022-10-18T11:54:43.346Z,100
2022-10-18T11:55:50.026Z,100
2022-10-18T11:56:57.168Z,100
2022-10-18T11:58:04.212Z,100
2022-10-18T11:59:11.288Z,100
2022-10-18T12:00:18.524Z,100
2022-10-18T12:01:27.758Z,100
2022-10-18T12:03:39.237Z,100
2022-10-18T12:04:58.422Z,100
2022-10-18T12:05:53.439Z,100
2022-10-18T12:06:59.963Z,100
2022-10-18T12:08:07.189Z,100
2022-10-18T12:09:14.240Z,100
2022-10-18T12:10:31.532Z,100
2022-10-18T12:11:28.369Z,100
2022-10-18T12:13:42.166Z,100
2022-10-18T12:14:48.664Z,100
2022-10-18T12:15:56.290Z,100
2022-10-18T12:17:35.757Z,99
2022-10-18T12:18:10.038Z,99
2022-10-18T12:19:17.072Z,99
2022-10-18T12:20:24.236Z,99
2022-10-18T12:21:31.256Z,99
2022-10-18T12:22:38.420Z,99
2022-10-18T12:23:45.053Z,99
2022-10-18T12:24:52.064Z,99
2022-10-18T12:25:59.258Z,99
2022-10-18T12:27:06.377Z,99
2022-10-18T12:28:13.377Z,98
2022-10-18T12:29:20.041Z,98
2022-10-18T12:30:27.133Z,97
2022-10-18T12:31:34.198Z,96
2022-10-18T12:32:51.630Z,95
2022-10-18T12:33:48.479Z,94
2022-10-18T12:34:54.991Z,94
2022-10-18T12:36:02.157Z,94
2022-10-18T12:37:09.232Z,94
2022-10-18T12:38:16.343Z,94
2022-10-18T12:39:32.462Z,94
2022-10-18T12:41:37.099Z,93
2022-10-18T12:42:44.225Z,94
2022-10-18T12:43:51.348Z,94
2022-10-18T12:44:57.935Z,93
2022-10-18T12:46:07.287Z,94
2022-10-18T12:47:12.217Z,94
2022-10-18T12:48:19.272Z,94
2022-10-18T12:49:26.391Z,94
2022-10-18T12:50:32.895Z,94
2022-10-18T12:51:40.139Z,94
2022-10-18T12:52:47.154Z,94
2022-10-18T12:53:54.243Z,96
2022-10-18T12:55:01.340Z,96
2022-10-18T12:56:07.924Z,96
2022-10-18T12:57:15.021Z,95
2022-10-18T12:58:22.150Z,95
2022-10-18T12:59:29.296Z,95
2022-10-18T13:00:36.351Z,95
2022-10-18T13:01:43.034Z,95
2022-10-18T13:02:50.063Z,96
2022-10-18T13:03:57.162Z,96
2022-10-18T13:05:06.796Z,95
2022-10-18T13:07:17.968Z,95
2022-10-18T13:09:32.136Z,94
2022-10-18T13:10:39.343Z,93
2022-10-18T13:11:46.447Z,95
2022-10-18T13:12:52.928Z,95
2022-10-18T13:14:00.203Z,95
2022-10-18T13:15:24.041Z,95
2022-10-18T13:16:14.284Z,95
2022-10-18T13:17:21.471Z,95
2022-10-18T13:18:27.962Z,95
2022-10-18T13:19:35.169Z,95
2022-10-18T13:20:42.170Z,95
2022-10-18T13:21:49.329Z,93
2022-10-18T13:22:56.419Z,93
2022-10-18T13:24:02.966Z,93
2022-10-18T13:25:10.088Z,93
2022-10-18T13:26:17.180Z,93
2022-10-18T13:27:35.557Z,94
2022-10-18T13:28:31.412Z,93
2022-10-18T13:29:38.008Z,93
2022-10-18T13:30:45.099Z,93
2022-10-18T13:31:52.172Z,93
2022-10-18T13:32:59.290Z,93
2022-10-18T13:34:06.370Z,93
2022-10-18T13:35:12.981Z,93
2022-10-18T13:36:22.962Z,93
2022-10-18T13:38:34.362Z,93
2022-10-18T13:39:41.422Z,93
2022-10-18T13:40:48.014Z,93
2022-10-18T13:41:57.830Z,93
2022-10-18T13:43:02.161Z,93
2022-10-18T13:44:09.305Z,93
2022-10-18T13:45:16.431Z,93
2022-10-18T13:46:22.959Z,93
2022-10-18T13:47:30.113Z,93
2022-10-18T13:48:37.292Z,93
2022-10-18T13:49:44.422Z,93
2022-10-18T13:50:51.430Z,93
2022-10-18T13:51:58.061Z,93
2022-10-18T13:53:05.123Z,92
2022-10-18T13:54:12.220Z,92
2022-10-18T13:55:19.387Z,92
2022-10-18T13:56:25.911Z,92
2022-10-18T13:57:33.045Z,92
2022-10-18T13:58:48.837Z,92
2022-10-18T13:59:47.287Z,91
2022-10-18T14:00:54.368Z,91
2022-10-18T14:02:00.973Z,90
2022-10-18T14:03:16.232Z,90
2022-10-18T14:04:15.241Z,89
2022-10-18T14:05:24.926Z,89
2022-10-18T14:06:29.401Z,89
2022-10-18T14:07:36.129Z,89
2022-10-18T14:11:02.311Z,88
2022-10-18T14:12:04.580Z,88
2022-10-18T14:13:10.927Z,88
2022-10-18T14:14:18.033Z,87
2022-10-18T14:15:25.247Z,87
2022-10-18T14:16:32.212Z,87
2022-10-18T14:19:53.210Z,86
2022-10-18T14:21:14.627Z,85
2022-10-18T14:22:07.237Z,85
2022-10-18T14:23:14.451Z,85
2022-10-18T14:24:20.897Z,85
2022-10-18T14:25:28.145Z,85
2022-10-18T14:26:35.220Z,84
2022-10-18T14:27:42.328Z,84
2022-10-18T14:28:59.430Z,84
2022-10-18T14:29:55.956Z,84
2022-10-18T14:31:03.115Z,84
2022-10-18T14:32:10.351Z,84
2022-10-18T14:33:17.267Z,84
2022-10-18T14:34:24.453Z,84
2022-10-18T14:35:33.038Z,84
2022-10-18T14:36:38.292Z,83
2022-10-18T14:37:45.339Z,83
2022-10-18T14:39:59.378Z,83
2022-10-18T14:41:06.056Z,83
2022-10-18T14:42:13.255Z,83
2022-10-18T14:43:20.282Z,82
2022-10-18T14:44:27.340Z,82
2022-10-18T14:45:35.448Z,82
2022-10-18T14:46:40.930Z,81
2022-10-18T14:47:48.196Z,81
2022-10-18T14:48:55.193Z,81
2022-10-18T14:50:02.462Z,80
2022-10-18T14:51:08.944Z,80
2022-10-18T14:52:16.085Z,80
2022-10-18T14:53:23.157Z,80
2022-10-18T14:54:31.962Z,80
2022-10-18T14:55:37.359Z,79
2022-10-18T14:56:43.858Z,79
2022-10-18T14:57:51.141Z,79
2022-10-18T14:58:58.219Z,79
2022-10-18T15:01:12.489Z,79
2022-10-18T15:02:19.053Z,79
2022-10-18T15:03:26.002Z,79
2022-10-18T15:04:33.264Z,79
2022-10-18T15:05:40.340Z,79
2022-10-18T15:07:54.086Z,79
2022-10-18T15:09:01.043Z,79
2022-10-18T15:10:08.224Z,79
2022-10-18T15:11:15.319Z,79
2022-10-18T15:12:22.533Z,79
2022-10-18T15:14:36.060Z,79
2022-10-18T15:15:43.177Z,79
2022-10-18T15:16:50.276Z,79
2022-10-18T15:17:57.284Z,79
2022-10-18T15:19:04.002Z,78
2022-10-18T15:20:11.129Z,78
2022-10-18T15:21:18.282Z,78
2022-10-18T15:22:33.034Z,78
2022-10-18T15:23:32.329Z,78
2022-10-18T15:24:38.911Z,78
2022-10-18T15:25:46.107Z,78
2022-10-18T15:26:53.111Z,78
2022-10-18T15:28:00.324Z,78
2022-10-18T15:29:07.545Z,78
2022-10-18T15:30:14.008Z,78
2022-10-18T15:31:20.999Z,78
2022-10-18T15:32:28.264Z,78
2022-10-18T15:33:35.340Z,77
2022-10-18T15:35:49.040Z,77
2022-10-18T15:38:03.241Z,77
2022-10-18T15:39:10.253Z,77
2022-10-18T15:40:17.585Z,77
2022-10-18T15:42:31.193Z,77
2022-10-18T15:43:38.293Z,77
2022-10-18T15:44:45.248Z,76
2022-10-18T15:45:52.442Z,76
2022-10-18T15:46:59.081Z,76
2022-10-18T15:48:06.141Z,76
2022-10-18T15:49:13.255Z,76
2022-10-18T15:50:20.439Z,76
2022-10-18T15:51:27.505Z,76
2022-10-18T15:52:38.138Z,76
2022-10-18T15:53:41.150Z,76
2022-10-18T15:55:55.272Z,75
2022-10-18T15:57:02.044Z,75
2022-10-18T15:58:08.954Z,75
2022-10-18T15:59:16.069Z,75
2022-10-18T16:00:23.300Z,75
2022-10-18T16:01:30.418Z,75
2022-10-18T16:02:36.870Z,75
2022-10-18T16:03:44.151Z,75
2022-10-18T16:04:51.126Z,75
2022-10-18T16:05:58.229Z,76
2022-10-18T16:07:05.484Z,76
2022-10-18T16:08:11.979Z,76
2022-10-18T16:09:19.167Z,76
2022-10-18T16:10:26.198Z,76
2022-10-18T16:11:33.160Z,76
2022-10-18T16:12:40.470Z,76
2022-10-18T16:13:47.923Z,76
2022-10-18T16:14:54.067Z,76
2022-10-18T16:16:01.150Z,76
2022-10-18T16:18:15.421Z,76
2022-10-18T16:19:21.969Z,76
2022-10-18T16:20:29.003Z,76
2022-10-18T16:21:36.207Z,76
2022-10-18T16:23:50.411Z,76
2022-10-18T16:24:56.891Z,76
2022-10-18T16:26:04.103Z,76
2022-10-18T16:27:11.192Z,76
2022-10-18T16:28:18.220Z,76
2022-10-18T16:29:25.417Z,76
2022-10-18T16:30:31.998Z,77
2022-10-18T16:31:38.975Z,77
2022-10-18T16:32:46.318Z,77
2022-10-18T16:33:53.195Z,77
2022-10-18T16:35:00.364Z,77
2022-10-18T16:36:06.997Z,77
2022-10-18T16:38:21.192Z,77
2022-10-18T16:39:28.208Z,77
2022-10-18T16:40:37.634Z,77
2022-10-18T16:41:42.030Z,77
2022-10-18T16:42:49.057Z,77
2022-10-18T16:43:56.302Z,77
2022-10-18T16:45:03.202Z,78
2022-10-18T16:46:10.482Z,78
2022-10-18T16:47:17.160Z,78
2022-10-18T16:48:24.021Z,78
2022-10-18T16:49:31.304Z,78
2022-10-18T16:50:38.249Z,78
2022-10-18T16:51:45.348Z,78
2022-10-18T16:52:51.980Z,78
2022-10-18T16:53:59.244Z,78
2022-10-18T16:55:06.244Z,78
2022-10-18T16:56:13.350Z,78
2022-10-18T16:57:19.912Z,78
2022-10-18T16:58:27.127Z,78
2022-10-18T16:59:34.134Z,78
2022-10-18T17:00:41.203Z,78
2022-10-18T17:01:48.393Z,78
2022-10-18T17:02:54.964Z,78
2022-10-18T17:06:16.216Z,79